Time;durP1;ratioP1;P1;durP2;ratioP2;P2;SDS_P1;SDS_P2;PMS_P1;PMS_P2;Temp;Humidity;BMP_temperature;BMP_pressure;BME280_temperature;BME280_humidity;BME280_pressure;Samples;Min_cycle;Max_cycle;Signal;HPM_P1;HPM_P2
2022/07/15 00:00:29;;;;;;;6.85;2.28;;;;;;;15.47;100.00;102180.13;5217485;28;20495;-74
2022/07/15 00:03:01;;;;;;;6.65;2.20;;;;;;;15.53;100.00;102171.66;5215991;28;20038;-74
2022/07/15 00:05:32;;;;;;;7.13;2.33;;;;;;;15.46;100.00;102173.19;5217277;28;20493;-74
2022/07/15 00:08:04;;;;;;;5.38;2.15;;;;;;;15.45;100.00;102174.13;5217952;28;20272;-74
2022/07/15 00:10:35;;;;;;;5.47;2.40;;;;;;;15.43;100.00;102173.44;5206553;28;20453;-74
2022/07/15 00:13:07;;;;;;;4.60;2.28;;;;;;;15.39;100.00;102169.38;5217139;28;20072;-74
2022/07/15 00:15:38;;;;;;;5.90;2.15;;;;;;;15.35;100.00;102162.69;5214999;28;20041;-74
2022/07/15 00:18:09;;;;;;;9.70;2.70;;;;;;;15.29;100.00;102167.47;5217424;28;20026;-74
2022/07/15 00:20:41;;;;;;;9.18;3.13;;;;;;;15.25;100.00;102159.97;5216803;28;20041;-74
2022/07/15 00:23:13;;;;;;;6.15;2.22;;;;;;;15.14;100.00;102171.41;5217012;28;20024;-74
2022/07/15 00:25:44;;;;;;;6.35;2.28;;;;;;;15.17;100.00;102172.97;5216334;28;20546;-74
2022/07/15 00:28:15;;;;;;;5.90;2.30;;;;;;;15.16;100.00;102169.50;5216971;28;20018;-74
2022/07/15 00:30:46;;;;;;;9.30;2.70;;;;;;;15.15;100.00;102167.78;5216396;28;20447;-74
2022/07/15 00:33:18;;;;;;;9.75;2.55;;;;;;;15.14;100.00;102166.13;5216452;28;20042;-74
2022/07/15 00:35:49;;;;;;;10.13;3.08;;;;;;;15.05;100.00;102161.63;5215566;28;20030;-74
2022/07/15 00:38:21;;;;;;;7.60;2.70;;;;;;;15.06;100.00;102168.56;5205914;28;20042;-74
2022/07/15 00:40:52;;;;;;;9.85;2.80;;;;;;;14.96;100.00;102162.38;5215644;28;20072;-74
2022/07/15 00:43:23;;;;;;;6.85;2.67;;;;;;;14.95;100.00;102155.41;5216965;28;20017;-74
2022/07/15 00:45:55;;;;;;;8.43;2.83;;;;;;;14.94;100.00;102174.88;5215966;28;20112;-74
2022/07/15 00:48:26;;;;;;;7.43;2.33;;;;;;;14.87;100.00;102165.78;5216519;28;20068;-74
2022/07/15 00:50:58;;;;;;;7.47;2.33;;;;;;;14.80;100.00;102160.16;5216446;28;20072;-74
2022/07/15 00:53:33;;;;;;;7.45;2.28;;;;;;;14.90;100.00;102168.16;5214474;28;20125;-74
2022/07/15 00:56:08;;;;;;;8.45;2.55;;;;;;;14.84;100.00;102162.41;5216692;28;20064;-74
2022/07/15 00:58:42;;;;;;;5.30;2.10;;;;;;;14.77;100.00;102163.91;5215903;28;20034;-74
2022/07/15 01:01:18;;;;;;;6.75;2.42;;;;;;;14.76;100.00;102164.84;5216194;28;20116;-74
2022/07/15 01:03:50;;;;;;;8.32;2.63;;;;;;;14.77;100.00;102165.69;5215629;28;20399;-74
2022/07/15 01:06:21;;;;;;;9.60;2.58;;;;;;;14.73;100.00;102161.63;5216637;28;20029;-74
2022/07/15 01:08:52;;;;;;;5.65;2.40;;;;;;;14.76;100.00;102161.38;5215116;28;20080;-74
2022/07/15 01:11:24;;;;;;;9.75;3.00;;;;;;;14.74;100.00;102156.22;5215702;28;20034;-74
2022/07/15 01:13:57;;;;;;;8.25;2.85;;;;;;;14.71;100.00;102155.66;5215896;28;20036;-74
2022/07/15 01:16:30;;;;;;;6.53;2.55;;;;;;;14.65;100.00;102153.50;5214455;28;20041;-74
2022/07/15 01:19:01;;;;;;;10.97;3.03;;;;;;;14.71;100.00;102148.56;5215611;28;20026;-74
2022/07/15 01:21:32;;;;;;;5.88;2.70;;;;;;;14.52;100.00;102157.13;5215986;28;20537;-74
2022/07/15 01:24:04;;;;;;;3.90;2.28;;;;;;;14.52;100.00;102151.03;5214859;28;20033;-74
2022/07/15 01:26:35;;;;;;;7.50;2.85;;;;;;;14.43;100.00;102155.19;5214960;28;20033;-74
2022/07/15 01:29:07;;;;;;;10.55;3.03;;;;;;;14.44;100.00;102161.31;5215941;28;20044;-74
2022/07/15 01:31:39;;;;;;;5.53;2.70;;;;;;;14.39;100.00;102168.75;5215098;28;20132;-74
2022/07/15 01:34:10;;;;;;;7.47;2.33;;;;;;;14.39;100.00;102166.94;5215870;28;20361;-74
2022/07/15 01:36:41;;;;;;;7.80;3.13;;;;;;;14.29;100.00;102166.84;5215788;28;20160;-74
2022/07/15 01:39:12;;;;;;;7.20;2.63;;;;;;;14.25;100.00;102173.34;5215049;28;20104;-74
2022/07/15 01:41:44;;;;;;;7.32;2.85;;;;;;;14.16;100.00;102163.50;5214749;28;20034;-74
2022/07/15 01:44:15;;;;;;;7.45;2.90;;;;;;;14.19;100.00;102170.34;5215680;28;20013;-74
2022/07/15 01:46:46;;;;;;;10.23;3.28;;;;;;;14.12;100.00;102178.72;5214755;28;20028;-74
2022/07/15 01:49:29;;;;;;;6.78;2.75;;;;;;;14.17;100.00;102180.16;5214613;28;20474;-74
2022/07/15 01:52:02;;;;;;;10.03;2.93;;;;;;;14.08;100.00;102172.00;5215091;28;20468;-73
2022/07/15 01:54:33;;;;;;;6.00;2.92;;;;;;;14.09;100.00;102181.59;5215208;28;20134;-74
2022/07/15 01:57:05;;;;;;;6.10;3.13;;;;;;;13.96;100.00;102164.22;5214485;28;20034;-74
2022/07/15 01:59:36;;;;;;;7.35;2.78;;;;;;;14.02;100.00;102182.22;5214645;28;20025;-74
2022/07/15 02:02:07;;;;;;;7.88;2.92;;;;;;;13.93;100.00;102178.47;5215314;28;20021;-74
2022/07/15 02:04:39;;;;;;;11.23;3.25;;;;;;;13.96;100.00;102188.78;5214904;28;20108;-74
2022/07/15 02:07:10;;;;;;;7.90;3.15;;;;;;;13.89;100.00;102182.31;5205426;28;20021;-74
2022/07/15 02:09:42;;;;;;;6.13;3.03;;;;;;;13.84;100.00;102176.56;5215487;28;20029;-73
2022/07/15 02:12:13;;;;;;;7.55;2.65;;;;;;;13.81;100.00;102182.06;5214164;28;20060;-74
2022/07/15 02:14:44;;;;;;;7.75;3.10;;;;;;;13.79;100.00;102173.47;5214622;28;20025;-74
2022/07/15 02:17:15;;;;;;;7.07;3.30;;;;;;;13.77;100.00;102181.47;5214362;28;20056;-73
2022/07/15 02:19:47;;;;;;;9.05;3.03;;;;;;;13.74;100.00;102168.53;5214979;28;20057;-74
2022/07/15 02:22:18;;;;;;;7.28;2.95;;;;;;;13.65;100.00;102163.97;5204711;28;20021;-74
2022/07/15 02:24:49;;;;;;;8.73;3.53;;;;;;;13.62;100.00;102174.75;5215021;28;20032;-73
2022/07/15 02:27:21;;;;;;;8.85;3.38;;;;;;;13.56;100.00;102169.94;5215440;28;20037;-74
2022/07/15 02:29:52;;;;;;;6.90;2.78;;;;;;;13.61;100.00;102179.16;5214225;28;20021;-74
2022/07/15 02:32:23;;;;;;;6.88;3.05;;;;;;;13.58;100.00;102168.03;5213886;28;20570;-74
2022/07/15 02:34:54;;;;;;;7.90;2.92;;;;;;;13.55;100.00;102165.63;5215232;28;20424;-74
2022/07/15 02:37:26;;;;;;;6.45;3.22;;;;;;;13.54;100.00;102171.84;5214438;28;20034;-74
2022/07/15 02:39:57;;;;;;;8.32;2.97;;;;;;;13.51;100.00;102167.66;5214787;28;20057;-74
2022/07/15 02:42:28;;;;;;;7.63;3.10;;;;;;;13.49;100.00;102169.59;5214950;28;20029;-74
2022/07/15 02:45:00;;;;;;;7.75;3.00;;;;;;;13.52;100.00;102168.50;5214941;28;20022;-73
2022/07/15 02:47:31;;;;;;;8.73;3.13;;;;;;;13.51;100.00;102172.09;5214205;28;20037;-74
2022/07/15 02:50:03;;;;;;;8.02;2.90;;;;;;;13.56;100.00;102180.47;5213204;28;20026;-73
2022/07/15 02:52:34;;;;;;;7.40;3.15;;;;;;;13.41;100.00;102171.09;5214870;28;20056;-73
2022/07/15 02:55:07;;;;;;;6.07;2.55;;;;;;;13.53;100.00;102176.28;5214251;28;20029;-74
2022/07/15 02:57:39;;;;;;;9.85;3.28;;;;;;;13.62;100.00;102178.22;5214665;28;20064;-73
2022/07/15 03:00:13;;;;;;;9.50;2.85;;;;;;;13.56;100.00;102183.97;5214799;28;20053;-73
2022/07/15 03:02:46;;;;;;;7.85;3.17;;;;;;;13.58;100.00;102189.94;5206716;28;20123;-73
2022/07/15 03:05:17;;;;;;;6.15;2.97;;;;;;;13.60;100.00;102195.09;5217458;28;20111;-73
2022/07/15 03:07:49;;;;;;;10.13;3.30;;;;;;;13.60;100.00;102203.00;5218784;28;20523;-74
2022/07/15 03:10:20;;;;;;;8.60;3.90;;;;;;;13.65;100.00;102208.75;5218756;28;20422;-74
2022/07/15 03:12:51;;;;;;;7.25;3.38;;;;;;;13.64;100.00;102204.44;5217920;28;20029;-73
2022/07/15 03:15:23;;;;;;;5.90;3.08;;;;;;;13.64;100.00;102209.72;5218639;28;20128;-73
2022/07/15 03:17:54;;;;;;;8.98;3.25;;;;;;;13.56;100.00;102205.03;5218092;28;20029;-73
2022/07/15 03:20:26;;;;;;;7.40;2.92;;;;;;;13.50;100.00;102200.22;5210852;28;20155;-73
2022/07/15 03:22:57;;;;;;;5.78;2.78;;;;;;;13.46;100.00;102214.56;5216751;28;20446;-73
2022/07/15 03:25:28;;;;;;;6.00;3.13;;;;;;;13.43;100.00;102212.16;5218958;28;20049;-73
2022/07/15 03:28:00;;;;;;;5.93;2.80;;;;;;;13.42;100.00;102214.91;5217397;28;20026;-73
2022/07/15 03:30:31;;;;;;;5.90;2.95;;;;;;;13.43;100.00;102217.41;5217629;28;20080;-73
2022/07/15 03:33:02;;;;;;;7.20;2.80;;;;;;;13.39;100.00;102222.06;5217632;28;20407;-73
2022/07/15 03:35:33;;;;;;;7.72;3.28;;;;;;;13.35;100.00;102219.78;5218262;28;20459;-74
2022/07/15 03:38:05;;;;;;;9.90;3.22;;;;;;;13.30;100.00;102225.41;5214852;28;20037;-73
2022/07/15 03:40:36;;;;;;;7.70;3.38;;;;;;;13.31;100.00;102213.09;5217279;28;20038;-73
2022/07/15 03:43:07;;;;;;;7.97;3.30;;;;;;;13.29;100.00;102218.44;5218549;28;20044;-74
2022/07/15 03:45:39;;;;;;;7.70;3.25;;;;;;;13.29;100.00;102231.59;5218093;28;20536;-74
2022/07/15 03:48:10;;;;;;;9.43;3.10;;;;;;;13.27;100.00;102233.53;5217430;28;20021;-74
2022/07/15 03:50:41;;;;;;;6.15;2.65;;;;;;;13.32;100.00;102230.53;5217618;28;20126;-74
2022/07/15 03:53:13;;;;;;;7.15;3.03;;;;;;;13.34;100.00;102234.75;5217703;28;20072;-74
2022/07/15 03:55:44;;;;;;;7.47;3.08;;;;;;;13.35;100.00;102236.41;5215136;28;20033;-74
2022/07/15 03:58:15;;;;;;;5.65;2.95;;;;;;;13.46;100.00;102235.63;5216119;28;20077;-74
2022/07/15 04:00:47;;;;;;;9.57;3.20;;;;;;;13.49;100.00;102242.47;5218284;28;20026;-74
2022/07/15 04:03:18;;;;;;;7.70;3.42;;;;;;;13.55;100.00;102242.00;5217492;28;20025;-74
2022/07/15 04:05:49;;;;;;;8.00;2.85;;;;;;;13.57;100.00;102237.47;5216490;28;20586;-74
2022/07/15 04:08:21;;;;;;;8.60;3.40;;;;;;;13.60;100.00;102235.44;5216928;28;20507;-73
2022/07/15 04:10:52;;;;;;;7.10;3.10;;;;;;;13.72;100.00;102243.38;5216119;28;20040;-74
2022/07/15 04:13:23;;;;;;;7.15;2.88;;;;;;;13.79;100.00;102239.31;5217256;28;20109;-74
2022/07/15 04:15:55;;;;;;;9.18;3.15;;;;;;;13.84;100.00;102247.69;5217106;28;20391;-74
2022/07/15 04:18:26;;;;;;;7.35;3.20;;;;;;;13.84;100.00;102237.16;5216655;28;20410;-74
2022/07/15 04:20:57;;;;;;;12.50;3.55;;;;;;;13.91;100.00;102234.91;5217179;28;20369;-74
2022/07/15 04:23:28;;;;;;;9.43;3.42;;;;;;;13.98;100.00;102236.94;5216532;28;20029;-74
2022/07/15 04:26:00;;;;;;;7.57;3.22;;;;;;;14.00;100.00;102239.44;5217111;28;20406;-74
2022/07/15 04:28:31;;;;;;;5.90;3.15;;;;;;;13.94;100.00;102243.41;5215935;28;20022;-74
2022/07/15 04:31:02;;;;;;;8.15;3.78;;;;;;;13.99;100.00;102249.16;5216305;28;20120;-73
2022/07/15 04:33:34;;;;;;;7.75;3.10;;;;;;;14.03;100.00;102241.84;5217563;28;20518;-73
2022/07/15 04:36:05;;;;;;;10.55;3.40;;;;;;;14.12;100.00;102246.41;5216852;28;20021;-73
2022/07/15 04:38:36;;;;;;;11.15;3.78;;;;;;;14.18;100.00;102240.66;5216526;28;20070;-73
2022/07/15 04:41:08;;;;;;;9.98;3.33;;;;;;;14.19;100.00;102246.78;5216348;28;20674;-73
2022/07/15 04:43:39;;;;;;;8.48;3.63;;;;;;;14.26;100.00;102254.09;5216250;28;20025;-73
2022/07/15 04:46:11;;;;;;;6.60;3.40;;;;;;;14.30;100.00;102242.34;5215962;28;20507;-73
2022/07/15 04:51:31;;;;;;;9.02;3.25;;;;;;;14.33;100.00;102249.19;5216401;28;20483;-73
2022/07/15 04:54:03;;;;;;;16.08;4.32;;;;;;;14.39;100.00;102247.84;5216444;28;20025;-73
2022/07/15 04:56:34;;;;;;;12.40;4.43;;;;;;;14.39;100.00;102242.56;5213551;28;20084;-73
2022/07/15 04:59:05;;;;;;;18.55;3.85;;;;;;;14.40;100.00;102255.66;5214263;28;20026;-73
2022/07/15 05:01:37;;;;;;;25.45;4.28;;;;;;;14.33;100.00;102257.91;5214576;28;20045;-73
2022/07/15 05:04:08;;;;;;;14.75;4.55;;;;;;;14.38;100.00;102248.81;5216514;28;20038;-73
2022/07/15 05:06:39;;;;;;;24.60;4.35;;;;;;;14.42;100.00;102250.25;5202077;28;20054;-73
2022/07/15 05:09:10;;;;;;;23.25;4.35;;;;;;;14.38;100.00;102254.91;5208719;28;20033;-73
2022/07/15 05:11:42;;;;;;;23.13;4.72;;;;;;;14.38;100.00;102254.09;5216264;28;20399;-73
2022/07/15 05:14:14;;;;;;;19.92;5.10;;;;;;;14.43;100.00;102254.53;5203568;28;20152;-73
2022/07/15 05:16:46;;;;;;;20.10;5.18;;;;;;;14.39;100.00;102261.84;5215173;28;20475;-73
2022/07/15 05:19:17;;;;;;;17.23;3.95;;;;;;;14.39;100.00;102259.22;5214396;28;20054;-73
2022/07/15 05:21:49;;;;;;;8.88;3.85;;;;;;;14.40;100.00;102254.81;5216038;28;20033;-74
2022/07/15 05:24:20;;;;;;;10.60;4.00;;;;;;;14.38;100.00;102256.72;5215338;28;20121;-73
2022/07/15 05:26:52;;;;;;;12.32;4.13;;;;;;;14.40;100.00;102255.66;5205957;28;20030;-73
2022/07/15 05:29:23;;;;;;;9.52;3.70;;;;;;;14.47;100.00;102255.97;5215285;28;20014;-74
2022/07/15 05:31:54;;;;;;;8.52;3.53;;;;;;;14.54;100.00;102254.56;5214993;28;20064;-73
2022/07/15 05:34:26;;;;;;;7.97;3.85;;;;;;;14.64;100.00;102259.97;5214145;28;20062;-74
2022/07/15 05:36:57;;;;;;;10.43;3.97;;;;;;;14.63;100.00;102260.94;5214854;28;20022;-74
2022/07/15 05:39:28;;;;;;;8.40;3.67;;;;;;;14.67;100.00;102252.66;5205874;28;20030;-73
2022/07/15 05:42:00;;;;;;;9.20;4.20;;;;;;;14.69;100.00;102255.16;5214830;28;20184;-73
2022/07/15 05:44:32;;;;;;;7.82;3.13;;;;;;;14.78;100.00;102257.06;5215829;28;20487;-73
2022/07/15 05:47:03;;;;;;;9.07;3.67;;;;;;;14.80;100.00;102253.34;5208142;28;20022;-73
2022/07/15 05:49:34;;;;;;;9.68;3.50;;;;;;;14.82;100.00;102261.97;5214559;28;20076;-74
2022/07/15 05:52:06;;;;;;;9.13;3.20;;;;;;;14.92;100.00;102255.94;5214778;28;20033;-73
2022/07/15 05:54:37;;;;;;;9.98;3.65;;;;;;;14.95;100.00;102255.69;5216013;28;20036;-73
2022/07/15 05:57:08;;;;;;;8.70;3.75;;;;;;;15.05;100.00;102251.38;5215278;28;20025;-73
2022/07/15 05:59:40;;;;;;;8.15;3.42;;;;;;;15.09;100.00;102247.50;5214783;28;20034;-73
2022/07/15 06:02:13;;;;;;;8.45;2.80;;;;;;;15.16;100.00;102253.13;5215280;28;20051;-73
2022/07/15 06:04:45;;;;;;;9.55;3.20;;;;;;;15.25;100.00;102258.47;5205422;28;20529;-73
2022/07/15 06:07:16;;;;;;;8.43;3.60;;;;;;;15.33;100.00;102257.84;5214324;28;20030;-74
2022/07/15 06:09:50;;;;;;;9.98;3.30;;;;;;;15.43;100.00;102252.66;5215131;28;20032;-73
2022/07/15 06:12:21;;;;;;;10.35;3.80;;;;;;;15.57;100.00;102249.72;5215232;28;20025;-73
2022/07/15 06:14:53;;;;;;;7.00;3.22;;;;;;;15.69;100.00;102254.00;5214211;28;20033;-73
2022/07/15 06:17:24;;;;;;;7.72;2.55;;;;;;;15.77;100.00;102248.06;5214695;28;20022;-73
2022/07/15 06:19:55;;;;;;;7.68;2.95;;;;;;;15.86;100.00;102255.19;5214683;28;20057;-73
2022/07/15 06:22:27;;;;;;;6.78;2.78;;;;;;;15.96;100.00;102260.53;5215854;28;20660;-73
2022/07/15 06:24:58;;;;;;;10.07;2.80;;;;;;;16.11;100.00;102256.59;5214528;28;20386;-73
2022/07/15 06:27:30;;;;;;;7.30;2.90;;;;;;;16.18;100.00;102259.56;5214886;28;20419;-73
2022/07/15 06:30:01;;;;;;;7.35;2.30;;;;;;;16.28;100.00;102255.97;5215174;28;20038;-73
2022/07/15 06:32:33;;;;;;;9.57;2.58;;;;;;;16.36;100.00;102246.53;5213984;28;20050;-73
2022/07/15 06:35:06;;;;;;;8.50;2.83;;;;;;;16.53;100.00;102248.53;5202589;28;20403;-73
2022/07/15 06:37:37;;;;;;;7.50;1.88;;;;;;;16.64;100.00;102253.72;5217521;28;20029;-73
2022/07/15 06:40:09;;;;;;;5.82;1.73;;;;;;;16.72;100.00;102251.22;5218670;28;20429;-73
2022/07/15 06:42:41;;;;;;;4.55;1.50;;;;;;;16.88;100.00;102255.19;5218309;28;20033;-73
2022/07/15 06:45:12;;;;;;;6.85;1.77;;;;;;;16.91;100.00;102242.53;5219113;28;20025;-74
2022/07/15 06:47:44;;;;;;;7.10;1.42;;;;;;;17.06;100.00;102248.25;5218593;28;20049;-73
2022/07/15 06:50:15;;;;;;;9.90;1.80;;;;;;;17.24;100.00;102257.19;5207381;28;20534;-74
2022/07/15 06:52:46;;;;;;;4.75;1.45;;;;;;;17.32;100.00;102255.66;5218076;28;20065;-73
2022/07/15 06:55:18;;;;;;;5.15;1.25;;;;;;;17.39;100.00;102256.78;5218862;28;20112;-74
2022/07/15 06:57:49;;;;;;;7.95;1.17;;;;;;;17.44;98.38;102252.72;5218043;28;20120;-73
2022/07/15 07:00:20;;;;;;;6.10;1.27;;;;;;;17.68;99.64;102246.94;5219052;28;20042;-73
2022/07/15 07:02:51;;;;;;;5.57;1.40;;;;;;;17.72;96.85;102251.00;5218619;28;20025;-74
2022/07/15 07:05:23;;;;;;;6.43;1.45;;;;;;;17.97;97.61;102251.41;5219030;28;20034;-73
2022/07/15 07:07:54;;;;;;;4.32;1.35;;;;;;;18.00;90.14;102259.06;5217200;28;20053;-73
2022/07/15 07:10:26;;;;;;;8.10;1.50;;;;;;;18.12;90.42;102262.38;5219783;28;20026;-73
2022/07/15 07:12:57;;;;;;;5.63;0.90;;;;;;;18.20;84.82;102255.34;5218325;28;20026;-74
2022/07/15 07:15:28;;;;;;;4.88;1.08;;;;;;;18.32;79.36;102263.13;5218405;28;20026;-74
2022/07/15 07:18:00;;;;;;;6.15;1.20;;;;;;;18.49;79.62;102259.72;5217580;28;20018;-73
2022/07/15 07:20:31;;;;;;;3.70;1.10;;;;;;;18.46;73.61;102260.00;5218155;28;20033;-74
2022/07/15 07:23:02;;;;;;;4.70;1.40;;;;;;;18.62;74.18;102267.31;5207664;28;20033;-73
2022/07/15 07:25:34;;;;;;;5.20;1.25;;;;;;;18.63;71.12;102264.50;5217697;28;20037;-74
2022/07/15 07:28:05;;;;;;;6.75;1.00;;;;;;;18.74;74.02;102268.81;5218858;28;20026;-74
2022/07/15 07:30:36;;;;;;;5.40;1.50;;;;;;;18.81;72.70;102267.22;5218224;28;20021;-74
2022/07/15 07:33:07;;;;;;;3.67;1.17;;;;;;;18.87;72.81;102263.16;5217936;28;20097;-74
2022/07/15 07:35:39;;;;;;;8.68;1.27;;;;;;;18.92;70.56;102261.69;5217339;28;20033;-74
2022/07/15 07:38:11;;;;;;;7.65;1.20;;;;;;;19.08;68.26;102271.66;5217814;28;20061;-74
2022/07/15 07:40:43;;;;;;;4.70;1.43;;;;;;;19.23;68.29;102273.78;5217876;28;20071;-74
2022/07/15 07:43:17;;;;;;;3.28;0.98;;;;;;;19.35;69.18;102272.56;5215776;28;20029;-74
2022/07/15 07:45:49;;;;;;;3.13;0.88;;;;;;;19.44;66.84;102284.94;5218016;28;20021;-74
2022/07/15 07:48:20;;;;;;;4.18;1.00;;;;;;;19.39;61.79;102276.59;5217165;28;20388;-73
2022/07/15 07:50:53;;;;;;;4.60;0.90;;;;;;;19.46;62.16;102269.66;5217468;28;20107;-74
2022/07/15 07:53:24;;;;;;;4.38;0.85;;;;;;;19.61;59.70;102281.41;5216913;28;20026;-74
2022/07/15 07:55:56;;;;;;;2.50;0.70;;;;;;;19.71;60.59;102277.88;5217769;28;20029;-73
2022/07/15 07:58:27;;;;;;;4.20;0.90;;;;;;;19.83;62.56;102277.47;5216808;28;20484;-74
2022/07/15 08:00:58;;;;;;;3.40;0.83;;;;;;;19.88;63.66;102269.00;5217798;28;20036;-74
2022/07/15 08:03:30;;;;;;;4.47;1.03;;;;;;;20.11;63.83;102275.47;5216637;28;20427;-74
2022/07/15 08:06:01;;;;;;;6.10;1.07;;;;;;;20.13;60.98;102270.81;5217752;28;20052;-74
2022/07/15 08:08:33;;;;;;;4.20;0.83;;;;;;;20.31;60.38;102277.91;5217220;28;20457;-74
2022/07/15 08:11:04;;;;;;;6.63;1.53;;;;;;;20.39;55.24;102281.44;5216777;28;20033;-74
2022/07/15 08:13:36;;;;;;;2.17;0.73;;;;;;;20.61;53.89;102268.56;5216350;28;20503;-74
2022/07/15 08:16:07;;;;;;;6.17;0.63;;;;;;;20.65;54.04;102276.06;5216830;28;20065;-74
2022/07/15 08:18:38;;;;;;;3.57;0.97;;;;;;;20.62;55.91;102267.56;5216610;28;20025;-74
2022/07/15 08:21:10;;;;;;;3.47;1.00;;;;;;;20.68;54.79;102274.06;5216784;28;20379;-74
2022/07/15 08:23:41;;;;;;;5.07;1.00;;;;;;;20.80;56.41;102273.63;5216812;28;20116;-74
2022/07/15 08:26:18;;;;;;;6.43;1.40;;;;;;;20.84;56.39;102284.78;5216999;28;20053;-74
2022/07/15 08:28:53;;;;;;;3.58;1.20;;;;;;;21.04;58.89;102272.84;5215552;28;20025;-74
2022/07/15 08:31:24;;;;;;;8.30;1.40;;;;;;;21.16;55.66;102281.34;5204328;28;20021;-74
2022/07/15 08:33:55;;;;;;;3.97;0.73;;;;;;;21.34;52.08;102281.22;5206967;28;20046;-74
2022/07/15 08:36:27;;;;;;;2.53;0.63;;;;;;;21.59;52.33;102277.56;5216131;28;20021;-74
2022/07/15 08:38:58;;;;;;;3.37;0.80;;;;;;;21.50;51.18;102272.38;5217259;28;20071;-74
2022/07/15 08:41:34;;;;;;;3.50;0.77;;;;;;;21.57;50.64;102271.56;5216578;28;20026;-74
2022/07/15 08:44:06;;;;;;;2.80;0.80;;;;;;;21.51;53.69;102269.53;5216540;28;20084;-74
2022/07/15 08:46:44;;;;;;;4.97;1.25;;;;;;;21.70;52.47;102267.53;5205069;28;20026;-74
2022/07/15 08:49:16;;;;;;;4.32;1.05;;;;;;;21.72;55.25;102270.88;5216105;28;20029;-74
2022/07/15 08:51:48;;;;;;;8.65;1.15;;;;;;;21.78;50.45;102259.50;5216193;28;20026;-74
2022/07/15 08:54:19;;;;;;;5.63;0.90;;;;;;;21.81;48.27;102261.84;5216037;28;20036;-74
2022/07/15 08:56:51;;;;;;;6.57;1.00;;;;;;;21.91;49.49;102257.16;5216261;28;20081;-74
2022/07/15 08:59:22;;;;;;;4.20;1.00;;;;;;;21.95;48.69;102263.81;5216017;28;20080;-75
2022/07/15 09:01:54;;;;;;;5.07;0.90;;;;;;;21.98;48.96;102266.16;5215116;28;20033;-74
2022/07/15 09:04:25;;;;;;;5.37;1.47;;;;;;;22.17;49.45;102259.63;5215344;28;20088;-74
2022/07/15 09:07:03;;;;;;;5.53;1.10;;;;;;;22.51;50.96;102267.31;5215927;28;20479;-74
2022/07/15 09:09:36;;;;;;;5.05;1.13;;;;;;;22.44;47.40;102266.34;5214061;28;20113;-74
2022/07/15 09:12:11;;;;;;;3.40;0.93;;;;;;;22.62;48.51;102255.44;5215023;28;20124;-74
2022/07/15 09:14:44;;;;;;;3.33;0.80;;;;;;;22.51;46.57;102255.81;5216497;28;20040;-74
2022/07/15 09:17:15;;;;;;;4.15;0.88;;;;;;;22.57;46.25;102249.75;5215814;28;20026;-74
2022/07/15 09:20:09;;;;;;;4.20;0.90;;;;;;;23.02;48.64;102258.88;5215069;28;20033;-74
2022/07/15 09:22:52;;;;;;;2.92;1.02;;;;;;;22.77;48.06;102256.34;5215918;28;20022;-75
2022/07/15 09:25:24;;;;;;;4.63;1.25;;;;;;;22.57;47.53;102245.25;5215820;28;20026;-74
2022/07/15 09:27:57;;;;;;;4.10;1.10;;;;;;;22.81;46.47;102248.81;5215694;28;20021;-74
2022/07/15 09:36:22;;;;;;;7.30;1.38;;;;;;;23.16;44.75;102259.94;5213838;28;20041;-74
2022/07/15 09:39:03;;;;;;;3.42;0.88;;;;;;;23.31;43.98;102247.47;5215904;28;20069;-74
2022/07/15 09:41:39;;;;;;;2.22;0.88;;;;;;;23.42;45.07;102252.38;5215154;28;20057;-74
2022/07/15 09:44:21;;;;;;;3.47;0.90;;;;;;;23.77;44.99;102250.06;5215662;28;20476;-74
2022/07/15 09:47:03;;;;;;;5.77;1.07;;;;;;;23.78;43.46;102243.69;5205325;28;20025;-74
2022/07/15 09:49:37;;;;;;;5.00;1.13;;;;;;;23.66;43.83;102250.47;5215050;28;20118;-74
2022/07/15 09:52:11;;;;;;;5.68;0.90;;;;;;;23.78;43.94;102254.41;5214360;28;20069;-74
2022/07/15 09:54:46;;;;;;;3.10;1.00;;;;;;;23.87;41.37;102256.00;5215128;28;20029;-74
2022/07/15 09:57:19;;;;;;;4.30;1.02;;;;;;;24.08;41.57;102257.09;5214594;28;20049;-74
2022/07/15 09:59:51;;;;;;;3.42;0.70;;;;;;;23.90;40.37;102255.59;5215297;28;20036;-74
2022/07/15 10:02:22;;;;;;;4.85;0.85;;;;;;;24.06;38.75;102251.09;5215031;28;20075;-73
2022/07/15 10:04:55;;;;;;;2.63;0.70;;;;;;;24.22;40.78;102242.88;5215414;28;20038;-73
2022/07/15 10:07:26;;;;;;;;;;;;;;;24.95;40.62;102239.19;5214210;28;20304;-73
2022/07/15 10:10:00;;;;;;;4.90;0.75;;;;;;;24.26;39.27;102246.81;5214703;28;19952;-73
2022/07/15 10:12:48;;;;;;;5.85;0.90;;;;;;;24.61;41.22;102244.38;5214952;28;20073;-73
2022/07/15 10:15:37;;;;;;;3.58;0.70;;;;;;;24.66;39.37;102247.31;5203159;28;20045;-73
2022/07/15 10:18:20;;;;;;;4.90;1.10;;;;;;;24.59;39.86;102238.41;5214289;28;20317;-73
2022/07/15 10:20:58;;;;;;;3.65;0.90;;;;;;;24.44;39.07;102236.59;5214532;28;20112;-73
2022/07/15 10:23:56;;;;;;;3.83;1.02;;;;;;;24.63;38.95;102224.44;5213894;28;20145;-73
2022/07/15 10:27:05;;;;;;;3.42;0.95;;;;;;;24.93;39.33;102225.16;5206091;28;20068;-73
2022/07/15 10:29:37;;;;;;;4.13;1.10;;;;;;;24.65;36.55;102227.72;5214366;28;20066;-73
2022/07/15 10:32:09;;;;;;;3.25;0.80;;;;;;;24.77;38.07;102220.03;5207497;28;20060;-74
2022/07/15 10:34:41;;;;;;;2.37;0.73;;;;;;;25.02;38.78;102219.66;5214936;28;20041;-74
2022/07/15 10:37:12;;;;;;;4.10;0.80;;;;;;;24.78;37.24;102218.19;5214379;28;20395;-74
2022/07/15 10:40:05;;;;;;;3.53;0.80;;;;;;;25.28;39.93;102213.72;5213504;28;20033;-74
2022/07/15 10:43:10;;;;;;;3.33;0.90;;;;;;;25.86;39.32;102211.66;5213893;28;20487;-74
2022/07/15 10:46:02;;;;;;;4.30;1.02;;;;;;;25.99;38.96;102208.19;5162371;28;20034;-73
2022/07/15 10:48:34;;;;;;;2.05;0.73;;;;;;;26.03;35.81;102209.47;5214066;28;20364;-74
2022/07/15 10:51:05;;;;;;;5.13;1.00;;;;;;;25.67;35.43;102215.84;5214051;28;20029;-74
2022/07/15 10:53:45;;;;;;;7.00;0.87;;;;;;;25.78;37.10;102209.09;5214389;28;20033;-74
2022/07/15 10:56:34;;;;;;;3.83;0.90;;;;;;;25.70;36.86;102207.41;5214235;28;20025;-74
2022/07/15 10:59:08;;;;;;;4.05;0.80;;;;;;;25.61;36.98;102209.44;5208771;28;20041;-74
2022/07/15 11:01:48;;;;;;;4.18;0.70;;;;;;;25.60;36.85;102206.91;5214715;28;20050;-74
2022/07/15 11:04:24;;;;;;;2.40;0.65;;;;;;;25.31;34.59;102206.13;5214282;28;20022;-74
2022/07/15 11:07:01;;;;;;;3.80;0.80;;;;;;;25.66;36.49;102196.22;5213608;28;20041;-73
2022/07/15 11:10:09;;;;;;;3.05;0.98;;;;;;;25.87;37.34;102192.66;5214726;28;20030;-74
2022/07/15 11:12:52;;;;;;;3.22;0.75;;;;;;;25.89;36.19;102198.66;5209104;28;20538;-74
2022/07/15 11:15:24;;;;;;;3.13;0.80;;;;;;;25.71;36.41;102190.25;5213454;28;20092;-73
2022/07/15 11:17:56;;;;;;;2.73;0.70;;;;;;;25.94;36.64;102181.94;5214388;28;20119;-73
2022/07/15 11:20:32;;;;;;;2.55;0.77;;;;;;;25.81;35.86;102189.94;5213833;28;20022;-73
2022/07/15 11:23:03;;;;;;;2.92;0.60;;;;;;;25.94;36.09;102198.06;5214390;28;20033;-73
2022/07/15 11:25:38;;;;;;;1.60;0.67;;;;;;;26.07;34.60;102194.63;5217353;28;20037;-74
2022/07/15 11:28:14;;;;;;;4.07;0.70;;;;;;;26.01;35.99;102187.34;5217761;28;21260;-73
2022/07/15 11:30:53;;;;;;;2.40;0.60;;;;;;;26.03;34.29;102179.94;5217163;28;20088;-74
2022/07/15 11:33:29;;;;;;;2.28;0.70;;;;;;;25.78;33.95;102180.44;5216846;28;20128;-74
2022/07/15 11:36:02;;;;;;;3.20;0.70;;;;;;;25.65;36.50;102183.03;5218059;28;20333;-74
2022/07/15 11:38:38;;;;;;;1.98;0.60;;;;;;;25.75;37.38;102182.66;5217710;28;20034;-74
2022/07/15 11:47:00;;;;;;;4.20;0.77;;;;;;;25.69;34.38;102177.06;5216775;28;20042;-73
2022/07/15 11:49:33;;;;;;;3.08;0.80;;;;;;;26.00;34.74;102170.41;5217937;28;20022;-73
2022/07/15 11:52:06;;;;;;;2.60;0.80;;;;;;;26.08;34.20;102174.78;5217946;28;20025;-73
2022/07/15 11:54:40;;;;;;;3.42;0.70;;;;;;;26.18;36.00;102153.75;5217353;28;20022;-73
2022/07/15 11:57:14;;;;;;;2.63;0.60;;;;;;;26.11;33.69;102172.53;5217347;28;20071;-73
2022/07/15 11:59:57;;;;;;;2.15;0.60;;;;;;;26.42;34.37;102168.47;5216437;28;20030;-73